Time,TemperatureF,DewpointF,PressureIn,WindDirection,WindDirectionDegrees,WindSpeedMPH,WindSpeedGustMPH,Humidity,HourlyPrecipIn,Conditions,Clouds,dailyrainin,SoftwareType,DateUTC
2013-05-11 00:03:00,60.1,59.8,29.89,NNW,338,0.0,0.0,99,0.00,CLR,,0.00,WeatherDisplay:10.37,2013-05-11 07:03:00,
2013-05-11 00:08:00,59.9,59.6,29.90,NNW,338,0.0,0.0,99,0.00,CLR,,0.00,WeatherDisplay:10.37,2013-05-11 07:08:00,
2013-05-11 00:13:00,59.9,59.6,29.90,NNW,338,0.0,0.0,99,0.00,CLR,,0.00,WeatherDisplay:10.37,2013-05-11 07:13:00,
2013-05-11 00:18:00,59.7,59.4,29.90,NNW,338,0.0,0.0,99,0.00,CLR,,0.00,WeatherDisplay:10.37,2013-05-11 07:18:00,
2013-05-11 00:23:00,59.5,59.3,29.91,NNW,338,0.0,0.0,99,0.00,CLR,,0.00,WeatherDisplay:10.37,2013-05-11 07:23:00,
2013-05-11 00:28:00,59.5,59.3,29.90,NNW,338,0.0,0.0,99,0.00,CLR,,0.00,WeatherDisplay:10.37,2013-05-11 07:28:00,
2013-05-11 00:33:00,59.4,59.1,29.91,NNW,338,0.0,0.0,99,0.00,CLR,,0.00,WeatherDisplay:10.37,2013-05-11 07:33:00,
2013-05-11 00:38:00,59.0,58.7,29.91,NNW,338,0.0,0.0,99,0.00,CLR,,0.00,WeatherDisplay:10.37,2013-05-11 07:38:00,
2013-05-11 00:43:00,58.8,58.5,29.91,NNW,338,0.0,0.0,99,0.00,CLR,,0.00,WeatherDisplay:10.37,2013-05-11 07:43:00,
2013-05-11 00:48:00,58.8,58.5,29.91,NNW,338,0.0,0.0,99,0.00,CLR,,0.00,WeatherDisplay:10.37,2013-05-11 07:48:00,
2013-05-11 00:53:00,58.8,58.5,29.92,NNW,338,0.0,0.0,99,0.00,CLR,,0.00,WeatherDisplay:10.37,2013-05-11 07:53:00,
2013-05-11 00:58:00,58.8,58.5,29.92,NNW,338,0.0,0.0,99,0.00,CLR,,0.00,WeatherDisplay:10.37,2013-05-11 07:58:00,
2013-05-11 01:03:00,58.8,58.5,29.92,NNW,338,0.0,0.0,99,0.00,CLR,,0.00,WeatherDisplay:10.37,2013-05-11 08:03:00,
2013-05-11 01:08:00,58.6,58.4,29.92,NNW,338,0.0,0.0,99,0.00,CLR,,0.00,WeatherDisplay:10.37,2013-05-11 08:08:00,
2013-05-11 01:13:00,58.6,58.4,29.92,NNW,338,0.0,0.0,99,0.00,CLR,,0.00,WeatherDisplay:10.37,2013-05-11 08:13:00,
2013-05-11 01:18:00,58.5,58.2,29.92,NNW,338,0.0,0.0,99,0.00,CLR,,0.00,WeatherDisplay:10.37,2013-05-11 08:18:00,
2013-05-11 01:23:00,58.3,58.0,29.92,NNW,338,0.0,0.0,99,0.00,CLR,,0.00,WeatherDisplay:10.37,2013-05-11 08:23:00,
2013-05-11 01:28:00,58.5,58.2,29.92,NNW,338,0.0,0.0,99,0.00,CLR,,0.00,WeatherDisplay:10.37,2013-05-11 08:28:00,
2013-05-11 01:33:00,58.3,58.0,29.92,NNW,338,0.0,0.0,99,0.00,CLR,,0.00,WeatherDisplay:10.37,2013-05-11 08:33:00,
2013-05-11 01:38:00,58.3,58.0,29.92,NNW,338,0.0,0.0,99,0.00,CLR,,0.00,WeatherDisplay:10.37,2013-05-11 08:38:00,
2013-05-11 01:43:00,58.3,58.0,29.92,NNW,338,0.0,0.0,99,0.00,CLR,,0.00,WeatherDisplay:10.37,2013-05-11 08:43:00,
2013-05-11 01:48:00,58.3,58.0,29.92,NNW,338,0.0,0.0,99,0.00,CLR,,0.00,WeatherDisplay:10.37,2013-05-11 08:48:00,
2013-05-11 01:53:00,58.1,57.8,29.92,NNW,338,0.0,0.0,99,0.00,CLR,,0.00,WeatherDisplay:10.37,2013-05-11 08:53:00,
2013-05-11 01:58:00,58.1,57.8,29.92,NNW,338,0.0,0.0,99,0.00,CLR,,0.00,WeatherDisplay:10.37,2013-05-11 08:58:00,
2013-05-11 02:03:00,57.9,57.6,29.91,NNW,338,0.0,0.0,99,0.00,CLR,,0.00,WeatherDisplay:10.37,2013-05-11 09:03:00,
2013-05-11 02:08:00,57.9,57.6,29.91,NNW,338,0.0,0.0,99,0.00,CLR,,0.00,WeatherDisplay:10.37,2013-05-11 09:08:00,
2013-05-11 02:13:00,57.9,57.6,29.91,NNW,338,0.0,0.0,99,0.00,CLR,,0.00,WeatherDisplay:10.37,2013-05-11 09:13:00,
2013-05-11 02:18:00,57.7,57.5,29.91,NNW,338,0.0,0.0,99,0.00,CLR,,0.00,WeatherDisplay:10.37,2013-05-11 09:18:00,
2013-05-11 02:23:00,57.7,57.5,29.91,NNW,338,0.0,0.0,99,0.00,CLR,,0.00,WeatherDisplay:10.37,2013-05-11 09:23:00,
2013-05-11 02:28:00,57.6,57.3,29.92,NNW,338,0.0,0.0,99,0.00,CLR,,0.00,WeatherDisplay:10.37,2013-05-11 09:28:00,
2013-05-11 02:33:00,57.4,57.1,29.92,NNW,338,0.0,0.0,99,0.00,CLR,,0.00,WeatherDisplay:10.37,2013-05-11 09:33:00,
2013-05-11 02:38:00,57.4,57.1,29.92,NNW,338,0.0,0.0,99,0.00,CLR,,0.00,WeatherDisplay:10.37,2013-05-11 09:38:00,
2013-05-11 02:43:00,57.0,56.7,29.92,NNW,338,0.0,0.0,99,0.00,CLR,,0.00,WeatherDisplay:10.37,2013-05-11 09:43:00,
2013-05-11 02:48:00,57.0,56.7,29.92,NNW,338,0.0,0.0,99,0.00,CLR,,0.00,WeatherDisplay:10.37,2013-05-11 09:48:00,
2013-05-11 02:53:00,57.0,56.7,29.92,NNW,338,0.0,0.0,99,0.00,CLR,,0.00,WeatherDisplay:10.37,2013-05-11 09:53:00,
2013-05-11 02:58:00,57.0,56.7,29.92,NNW,338,0.0,0.0,99,0.00,CLR,,0.00,WeatherDisplay:10.37,2013-05-11 09:58:00,
2013-05-11 03:03:00,57.0,56.7,29.92,NNW,338,0.0,0.0,99,0.00,CLR,,0.00,WeatherDisplay:10.37,2013-05-11 10:03:00,
2013-05-11 03:08:00,57.0,56.7,29.92,NNW,338,0.0,0.0,99,0.00,CLR,,0.00,WeatherDisplay:10.37,2013-05-11 10:08:00,
2013-05-11 03:13:00,57.4,57.1,29.92,NNW,338,0.0,0.0,99,0.00,CLR,,0.00,WeatherDisplay:10.37,2013-05-11 10:13:00,
2013-05-11 03:18:00,57.4,57.1,29.92,NNW,338,0.0,0.0,99,0.00,CLR,,0.00,WeatherDisplay:10.37,2013-05-11 10:18:00,
2013-05-11 03:23:00,57.6,57.3,29.91,NNW,338,0.0,0.0,99,0.00,CLR,,0.00,WeatherDisplay:10.37,2013-05-11 10:23:00,
2013-05-11 03:28:00,57.7,57.5,29.91,ESE,112,0.0,0.0,99,0.00,CLR,,0.00,WeatherDisplay:10.37,2013-05-11 10:28:00,
2013-05-11 03:33:00,57.7,57.5,29.92,ESE,112,0.0,0.0,99,0.00,CLR,,0.00,WeatherDisplay:10.37,2013-05-11 10:33:00,
2013-05-11 03:38:00,57.7,57.5,29.91,ESE,112,0.0,0.0,99,0.00,CLR,,0.00,WeatherDisplay:10.37,2013-05-11 10:38:00,
2013-05-11 03:43:00,57.9,57.6,29.91,ESE,112,0.0,0.0,99,0.00,CLR,,0.00,WeatherDisplay:10.37,2013-05-11 10:43:00,
2013-05-11 03:48:00,57.9,57.6,29.91,ESE,112,0.0,0.0,99,0.00,CLR,,0.00,WeatherDisplay:10.37,2013-05-11 10:48:00,
2013-05-11 03:53:00,57.7,57.5,29.91,ESE,112,0.0,0.0,99,0.00,CLR,,0.00,WeatherDisplay:10.37,2013-05-11 10:53:00,
2013-05-11 03:58:00,57.7,57.5,29.90,ESE,112,0.0,0.0,99,0.00,CLR,,0.00,WeatherDisplay:10.37,2013-05-11 10:58:00,
2013-05-11 04:03:00,57.7,57.5,29.90,ESE,112,0.0,0.0,99,0.00,CLR,,0.00,WeatherDisplay:10.37,2013-05-11 11:03:00,
2013-05-11 04:08:00,57.7,57.5,29.90,ESE,112,0.0,0.0,99,0.00,CLR,,0.00,WeatherDisplay:10.37,2013-05-11 11:08:00,
2013-05-11 04:13:00,57.6,57.3,29.89,ESE,112,0.0,0.0,99,0.00,CLR,,0.00,WeatherDisplay:10.37,2013-05-11 11:13:00,
2013-05-11 04:18:00,57.4,57.1,29.88,ESE,112,0.0,0.0,99,0.00,CLR,,0.00,WeatherDisplay:10.37,2013-05-11 11:18:00,
2013-05-11 04:23:00,57.4,57.1,29.88,ESE,112,0.0,0.0,99,0.00,CLR,,0.00,WeatherDisplay:10.37,2013-05-11 11:23:00,
2013-05-11 04:28:00,57.4,57.1,29.88,ESE,112,0.0,0.0,99,0.00,CLR,,0.00,WeatherDisplay:10.37,2013-05-11 11:28:00,
2013-05-11 04:33:00,57.4,57.1,29.88,ESE,112,0.0,0.0,99,0.00,CLR,,0.00,WeatherDisplay:10.37,2013-05-11 11:33:00,
2013-05-11 04:38:00,57.6,57.3,29.89,ESE,112,0.0,0.0,99,0.00,CLR,,0.00,WeatherDisplay:10.37,2013-05-11 11:38:00,
2013-05-11 04:43:00,57.7,57.5,29.89,ESE,112,0.0,0.0,99,0.00,CLR,,0.00,WeatherDisplay:10.37,2013-05-11 11:43:00,
2013-05-11 04:48:00,57.7,57.5,29.89,ESE,112,0.0,0.0,99,0.00,CLR,,0.00,WeatherDisplay:10.37,2013-05-11 11:48:00,
2013-05-11 04:53:00,57.7,57.5,29.89,ESE,112,0.0,0.0,99,0.00,CLR,,0.00,WeatherDisplay:10.37,2013-05-11 11:53:00,
2013-05-11 04:58:00,57.7,57.5,29.90,ESE,112,0.0,0.0,99,0.00,CLR,,0.00,WeatherDisplay:10.37,2013-05-11 11:58:00,
2013-05-11 05:03:00,57.9,57.6,29.90,ESE,112,0.0,0.0,99,0.00,CLR,,0.00,WeatherDisplay:10.37,2013-05-11 12:03:00,
2013-05-11 05:08:00,57.9,57.6,29.90,ESE,112,0.0,0.0,99,0.00,CLR,,0.00,WeatherDisplay:10.37,2013-05-11 12:08:00,
2013-05-11 05:13:00,57.9,57.6,29.90,ESE,112,0.0,0.0,99,0.00,CLR,,0.00,WeatherDisplay:10.37,2013-05-11 12:13:00,
2013-05-11 05:18:00,57.9,57.6,29.90,ESE,112,0.0,0.0,99,0.00,CLR,,0.00,WeatherDisplay:10.37,2013-05-11 12:18:00,
2013-05-11 05:23:00,57.9,57.6,29.90,ESE,112,0.0,0.0,99,0.00,CLR,,0.00,WeatherDisplay:10.37,2013-05-11 12:23:00,
2013-05-11 05:28:00,57.6,57.3,29.90,ESE,112,0.0,0.0,99,0.00,CLR,,0.00,WeatherDisplay:10.37,2013-05-11 12:28:00,
2013-05-11 05:33:00,57.7,57.5,29.89,ESE,112,0.0,0.0,99,0.00,CLR,,0.00,WeatherDisplay:10.37,2013-05-11 12:33:00,
2013-05-11 05:38:00,57.7,57.5,29.89,ESE,112,0.0,0.0,99,0.00,CLR,,0.00,WeatherDisplay:10.37,2013-05-11 12:38:00,
2013-05-11 05:43:00,57.7,57.5,29.89,ESE,112,0.0,0.0,99,0.00,CLR,,0.00,WeatherDisplay:10.37,2013-05-11 12:43:00,
2013-05-11 05:48:00,57.7,57.5,29.89,ESE,112,0.0,0.0,99,0.00,CLR,,0.00,WeatherDisplay:10.37,2013-05-11 12:48:00,
2013-05-11 05:53:00,57.7,57.5,29.89,ESE,112,0.0,0.0,99,0.00,CLR,,0.00,WeatherDisplay:10.37,2013-05-11 12:53:00,
2013-05-11 05:58:00,57.7,57.5,29.88,ESE,112,0.0,0.0,99,0.00,CLR,,0.00,WeatherDisplay:10.37,2013-05-11 12:58:00,
2013-05-11 06:03:00,57.7,57.5,29.89,ESE,112,0.0,0.0,99,0.00,CLR,,0.00,WeatherDisplay:10.37,2013-05-11 13:03:00,
2013-05-11 06:08:00,57.9,57.6,29.89,ESE,112,0.0,0.0,99,0.00,CLR,,0.00,WeatherDisplay:10.37,2013-05-11 13:08:00,
2013-05-11 06:13:00,57.9,57.6,29.90,ESE,112,0.0,0.0,99,0.00,CLR,,0.00,WeatherDisplay:10.37,2013-05-11 13:13:00,
2013-05-11 06:18:00,57.9,57.6,29.90,ESE,112,0.0,0.0,99,0.00,CLR,,0.00,WeatherDisplay:10.37,2013-05-11 13:18:00,
2013-05-11 06:23:00,57.9,57.6,29.89,ESE,112,0.0,0.0,99,0.00,CLR,,0.00,WeatherDisplay:10.37,2013-05-11 13:23:00,
2013-05-11 06:28:00,57.9,57.6,29.89,ESE,112,0.0,0.0,99,0.00,CLR,,0.00,WeatherDisplay:10.37,2013-05-11 13:28:00,
2013-05-11 06:33:00,57.9,57.6,29.89,ESE,112,0.0,0.0,99,0.00,CLR,,0.00,WeatherDisplay:10.37,2013-05-11 13:33:00,
2013-05-11 06:38:00,58.1,57.8,29.89,ESE,112,0.0,0.0,99,0.00,CLR,,0.00,WeatherDisplay:10.37,2013-05-11 13:38:00,
2013-05-11 06:43:00,58.5,58.2,29.89,SE,135,0.0,0.0,99,0.00,CLR,,0.00,WeatherDisplay:10.37,2013-05-11 13:43:00,
2013-05-11 06:48:00,58.3,58.0,29.89,SE,135,0.0,0.0,99,0.00,CLR,,0.00,WeatherDisplay:10.37,2013-05-11 13:48:00,
2013-05-11 06:53:00,58.5,58.2,29.89,SE,135,0.0,0.0,99,0.00,CLR,,0.00,WeatherDisplay:10.37,2013-05-11 13:53:00,
2013-05-11 06:58:00,58.8,58.5,29.89,SE,135,0.0,0.0,99,0.00,CLR,,0.00,WeatherDisplay:10.37,2013-05-11 13:58:00,
2013-05-11 07:03:00,58.8,58.5,29.89,SE,135,0.0,0.0,99,0.00,CLR,,0.00,WeatherDisplay:10.37,2013-05-11 14:03:00,
2013-05-11 07:08:00,59.0,58.7,29.89,SE,135,0.0,0.0,99,0.00,CLR,,0.00,WeatherDisplay:10.37,2013-05-11 14:08:00,
2013-05-11 07:13:00,59.4,59.1,29.89,SE,135,0.0,0.0,99,0.00,CLR,,0.00,WeatherDisplay:10.37,2013-05-11 14:13:00,
2013-05-11 07:18:00,59.7,59.4,29.89,SE,135,0.0,0.0,99,0.00,CLR,,0.00,WeatherDisplay:10.37,2013-05-11 14:18:00,
2013-05-11 07:23:00,59.9,59.6,29.89,SE,135,0.0,0.0,99,0.00,CLR,,0.00,WeatherDisplay:10.37,2013-05-11 14:23:00,
2013-05-11 07:28:00,60.1,59.8,29.89,SE,135,0.0,0.0,99,0.00,CLR,,0.00,WeatherDisplay:10.37,2013-05-11 14:28:00,
2013-05-11 07:33:00,60.1,59.8,29.89,SE,135,0.0,0.0,99,0.00,CLR,,0.00,WeatherDisplay:10.37,2013-05-11 14:33:00,
2013-05-11 07:38:00,60.4,60.2,29.90,SE,135,0.0,0.0,99,0.00,CLR,,0.00,WeatherDisplay:10.37,2013-05-11 14:38:00,
2013-05-11 07:43:00,60.6,60.3,29.90,SE,135,0.0,0.0,99,0.00,CLR,,0.00,WeatherDisplay:10.37,2013-05-11 14:43:00,
2013-05-11 07:48:00,61.0,60.7,29.90,SE,135,0.0,0.0,99,0.00,CLR,,0.00,WeatherDisplay:10.37,2013-05-11 14:48:00,
2013-05-11 07:53:00,61.0,60.7,29.90,SE,135,0.0,0.0,99,0.00,CLR,,0.00,WeatherDisplay:10.37,2013-05-11 14:53:00,
2013-05-11 07:58:00,61.5,61.2,29.90,SE,135,0.0,0.0,99,0.00,CLR,,0.00,WeatherDisplay:10.37,2013-05-11 14:58:00,
2013-05-11 08:03:00,61.7,61.4,29.90,SE,135,0.0,0.0,99,0.00,CLR,,0.00,WeatherDisplay:10.37,2013-05-11 15:03:00,
2013-05-11 08:08:00,61.9,61.6,29.90,SE,135,0.0,0.0,99,0.00,CLR,,0.00,WeatherDisplay:10.37,2013-05-11 15:08:00,
2013-05-11 08:13:00,62.4,62.1,29.90,SE,135,0.0,0.0,99,0.00,CLR,,0.00,WeatherDisplay:10.37,2013-05-11 15:13:00,
2013-05-11 08:18:00,62.6,62.3,29.90,SE,135,0.0,0.0,99,0.00,CLR,,0.00,WeatherDisplay:10.37,2013-05-11 15:18:00,
2013-05-11 08:23:00,63.0,62.7,29.90,SE,135,0.0,0.0,99,0.00,CLR,,0.00,WeatherDisplay:10.37,2013-05-11 15:23:00,
2013-05-11 08:28:00,63.3,63.0,29.90,SE,135,0.0,0.0,99,0.00,CLR,,0.00,WeatherDisplay:10.37,2013-05-11 15:28:00,
2013-05-11 08:33:00,63.7,63.4,29.90,SSE,158,0.0,0.0,99,0.00,CLR,,0.00,WeatherDisplay:10.37,2013-05-11 15:33:00,
2013-05-11 08:38:00,63.7,63.4,29.90,ENE,68,0.0,0.0,99,0.00,CLR,,0.00,WeatherDisplay:10.37,2013-05-11 15:38:00,
2013-05-11 08:43:00,64.0,63.8,29.90,ENE,68,0.0,0.0,99,0.00,CLR,,0.00,WeatherDisplay:10.37,2013-05-11 15:43:00,
2013-05-11 08:48:00,64.0,63.8,29.90,SE,135,0.0,0.0,99,0.00,CLR,,0.00,WeatherDisplay:10.37,2013-05-11 15:48:00,
2013-05-11 08:53:00,64.2,63.9,29.89,SE,135,0.0,0.0,99,0.00,CLR,,0.00,WeatherDisplay:10.37,2013-05-11 15:53:00,
2013-05-11 08:58:00,64.6,64.3,29.89,ESE,112,0.0,0.0,99,0.00,CLR,,0.00,WeatherDisplay:10.37,2013-05-11 15:58:00,
2013-05-11 09:03:00,64.8,64.5,29.88,SE,135,0.0,0.0,99,0.00,CLR,,0.00,WeatherDisplay:10.37,2013-05-11 16:03:00,
2013-05-11 09:08:00,65.1,64.8,29.88,ESE,112,0.0,0.0,99,0.00,CLR,,0.00,WeatherDisplay:10.37,2013-05-11 16:08:00,
2013-05-11 09:13:00,65.5,65.2,29.88,SSW,202,0.0,0.0,99,0.00,CLR,,0.00,WeatherDisplay:10.37,2013-05-11 16:13:00,
2013-05-11 09:18:00,65.5,65.2,29.88,SSE,158,0.0,0.0,99,0.00,CLR,,0.00,WeatherDisplay:10.37,2013-05-11 16:18:00,
2013-05-11 09:23:00,66.0,65.7,29.87,East,90,0.0,0.0,99,0.00,CLR,,0.00,WeatherDisplay:10.37,2013-05-11 16:23:00,
2013-05-11 09:28:00,66.6,66.3,29.87,East,90,0.0,0.0,99,0.00,CLR,,0.00,WeatherDisplay:10.37,2013-05-11 16:28:00,
2013-05-11 09:33:00,66.9,66.6,29.87,ESE,112,0.0,0.0,99,0.00,CLR,,0.00,WeatherDisplay:10.37,2013-05-11 16:33:00,
2013-05-11 09:38:00,67.3,54.3,29.87,East,90,0.0,0.0,63,0.00,CLR,,0.00,WeatherDisplay:10.37,2013-05-11 16:38:00,
2013-05-11 09:43:00,67.8,55.2,29.87,East,90,0.0,0.0,64,0.00,CLR,,0.00,WeatherDisplay:10.37,2013-05-11 16:43:00,
2013-05-11 09:48:00,68.2,54.7,29.86,SE,135,0.0,0.0,62,0.00,CLR,,0.00,WeatherDisplay:10.37,2013-05-11 16:48:00,
2013-05-11 09:53:00,68.2,50.9,29.86,SE,135,0.0,0.0,54,0.00,CLR,,0.00,WeatherDisplay:10.37,2013-05-11 16:53:00,
2013-05-11 09:58:00,68.2,53.3,29.86,SE,135,0.0,0.0,59,0.00,CLR,,0.00,WeatherDisplay:10.37,2013-05-11 16:58:00,
2013-05-11 10:03:00,68.4,53.9,29.86,SE,135,0.0,0.0,60,0.00,CLR,,0.00,WeatherDisplay:10.37,2013-05-11 17:03:00,
2013-05-11 10:08:00,68.5,51.7,29.86,WSW,248,2.3,2.5,55,0.00,CLR,,0.00,WeatherDisplay:10.37,2013-05-11 17:08:00,
2013-05-11 10:13:00,69.3,55.7,29.86,WSW,248,0.0,0.0,62,0.00,CLR,,0.00,WeatherDisplay:10.37,2013-05-11 17:13:00,
2013-05-11 10:18:00,69.6,55.6,29.85,WSW,248,0.0,0.0,61,0.00,CLR,,0.00,WeatherDisplay:10.37,2013-05-11 17:18:00,
2013-05-11 10:23:00,70.2,55.6,29.85,WSW,248,0.0,0.0,60,0.00,CLR,,0.00,WeatherDisplay:10.37,2013-05-11 17:23:00,
2013-05-11 10:28:00,70.9,54.9,29.86,NE,45,0.0,0.0,57,0.00,CLR,,0.00,WeatherDisplay:10.37,2013-05-11 17:28:00,
2013-05-11 10:33:00,70.9,54.9,29.86,West,270,0.0,0.0,57,0.00,CLR,,0.00,WeatherDisplay:10.37,2013-05-11 17:33:00,
2013-05-11 10:38:00,71.2,55.2,29.86,West,270,0.0,0.0,57,0.00,CLR,,0.00,WeatherDisplay:10.37,2013-05-11 17:38:00,
2013-05-11 10:43:00,71.8,56.2,29.86,SW,225,0.0,0.0,58,0.00,CLR,,0.00,WeatherDisplay:10.37,2013-05-11 17:43:00,
2013-05-11 10:48:00,72.3,56.7,29.86,SW,225,0.0,0.0,58,0.00,CLR,,0.00,WeatherDisplay:10.37,2013-05-11 17:48:00,
2013-05-11 10:53:00,72.7,56.1,29.86,NNW,338,1.2,1.2,56,0.00,CLR,,0.00,WeatherDisplay:10.37,2013-05-11 17:53:00,
2013-05-11 10:58:00,72.7,55.6,29.86,NW,315,0.0,0.0,55,0.00,CLR,,0.00,WeatherDisplay:10.37,2013-05-11 17:58:00,
2013-05-11 11:03:00,72.7,55.1,29.85,WNW,292,0.0,0.0,54,0.00,CLR,,0.00,WeatherDisplay:10.37,2013-05-11 18:03:00,
2013-05-11 11:08:00,73.0,54.9,29.85,NE,45,0.0,0.0,53,0.00,CLR,,0.00,WeatherDisplay:10.37,2013-05-11 18:08:00,
2013-05-11 11:13:00,72.7,54.0,29.85,West,270,2.2,2.2,52,0.00,CLR,,0.00,WeatherDisplay:10.37,2013-05-11 18:13:00,
2013-05-11 11:18:00,72.7,53.5,29.85,WNW,292,0.0,0.0,51,0.00,CLR,,0.00,WeatherDisplay:10.37,2013-05-11 18:18:00,
2013-05-11 11:23:00,72.9,54.2,29.85,SW,225,0.0,0.0,52,0.00,CLR,,0.00,WeatherDisplay:10.37,2013-05-11 18:23:00,
2013-05-11 11:28:00,73.2,53.5,29.86,WNW,292,1.2,1.2,50,0.00,CLR,,0.00,WeatherDisplay:10.37,2013-05-11 18:28:00,
2013-05-11 11:33:00,73.9,54.1,29.85,SW,225,0.0,0.0,50,0.00,CLR,,0.00,WeatherDisplay:10.37,2013-05-11 18:33:00,
2013-05-11 11:38:00,74.5,54.6,29.85,SSW,202,0.0,0.0,50,0.00,CLR,,0.00,WeatherDisplay:10.37,2013-05-11 18:38:00,
2013-05-11 11:43:00,75.0,53.4,29.84,SW,225,0.0,0.0,47,0.00,CLR,,0.00,WeatherDisplay:10.37,2013-05-11 18:43:00,
2013-05-11 11:48:00,74.8,53.3,29.85,SW,225,2.5,2.5,47,0.00,CLR,,0.00,WeatherDisplay:10.37,2013-05-11 18:48:00,
2013-05-11 11:53:00,74.8,53.3,29.84,SW,225,0.0,0.0,47,0.00,CLR,,0.00,WeatherDisplay:10.37,2013-05-11 18:53:00,
2013-05-11 11:58:00,74.8,53.3,29.85,SW,225,0.0,0.0,47,0.00,CLR,,0.00,WeatherDisplay:10.37,2013-05-11 18:58:00,
2013-05-11 12:03:00,75.0,52.8,29.84,SW,225,0.0,0.0,46,0.00,CLR,,0.00,WeatherDisplay:10.37,2013-05-11 19:03:00,
2013-05-11 12:08:00,75.4,54.3,29.84,SW,225,1.2,1.2,48,0.00,CLR,,0.00,WeatherDisplay:10.37,2013-05-11 19:08:00,
2013-05-11 12:13:00,75.7,53.5,29.84,WNW,292,0.0,0.0,46,0.00,CLR,,0.00,WeatherDisplay:10.37,2013-05-11 19:13:00,
2013-05-11 12:18:00,76.1,53.8,29.84,SSW,202,1.6,1.6,46,0.00,CLR,,0.00,WeatherDisplay:10.37,2013-05-11 19:18:00,
2013-05-11 12:23:00,76.6,54.3,29.84,SSE,158,1.2,1.2,46,0.00,CLR,,0.00,WeatherDisplay:10.37,2013-05-11 19:23:00,
2013-05-11 12:28:00,76.8,53.3,29.84,WSW,248,4.6,4.6,44,0.00,CLR,,0.00,WeatherDisplay:10.37,2013-05-11 19:28:00,
2013-05-11 12:33:00,76.8,54.5,29.84,SW,225,2.3,0.0,46,0.00,CLR,,0.00,WeatherDisplay:10.37,2013-05-11 19:33:00,
2013-05-11 12:38:00,76.8,53.3,29.84,North,0,0.0,0.0,44,0.00,CLR,,0.00,WeatherDisplay:10.37,2013-05-11 19:38:00,
2013-05-11 12:43:00,76.8,53.9,29.83,SW,225,1.3,1.3,45,0.00,CLR,,0.00,WeatherDisplay:10.37,2013-05-11 19:43:00,
2013-05-11 12:48:00,77.2,54.8,29.83,SW,225,0.0,0.0,46,0.00,CLR,,0.00,WeatherDisplay:10.37,2013-05-11 19:48:00,
2013-05-11 12:53:00,75.0,52.2,29.83,WSW,248,0.0,0.0,45,0.00,CLR,,0.00,WeatherDisplay:10.37,2013-05-11 19:53:00,
2013-05-11 12:58:00,75.0,52.2,29.82,West,270,0.0,0.0,45,0.00,CLR,,0.00,WeatherDisplay:10.37,2013-05-11 19:58:00,
2013-05-11 13:03:00,75.7,52.9,29.82,West,270,0.0,0.0,45,0.00,CLR,,0.00,WeatherDisplay:10.37,2013-05-11 20:03:00,
2013-05-11 13:08:00,76.1,53.8,29.82,South,180,0.0,0.0,46,0.00,CLR,,0.00,WeatherDisplay:10.37,2013-05-11 20:08:00,
2013-05-11 13:13:00,77.2,54.2,29.82,SSE,158,0.0,0.0,45,0.00,CLR,,0.00,WeatherDisplay:10.37,2013-05-11 20:13:00,
2013-05-11 13:18:00,77.9,54.8,29.83,WSW,248,2.3,0.0,45,0.00,CLR,,0.00,WeatherDisplay:10.37,2013-05-11 20:18:00,
2013-05-11 13:23:00,78.4,55.3,29.82,WSW,248,0.0,0.0,45,0.00,CLR,,0.00,WeatherDisplay:10.37,2013-05-11 20:23:00,
2013-05-11 13:28:00,78.4,55.9,29.82,SW,225,0.0,0.0,46,0.00,CLR,,0.00,WeatherDisplay:10.37,2013-05-11 20:28:00,
2013-05-11 13:33:00,78.1,55.6,29.82,SSW,202,0.0,0.0,46,0.00,CLR,,0.00,WeatherDisplay:10.37,2013-05-11 20:33:00,
2013-05-11 13:38:00,78.3,55.2,29.82,WNW,292,0.0,0.0,45,0.00,CLR,,0.00,WeatherDisplay:10.37,2013-05-11 20:38:00,
2013-05-11 13:43:00,78.6,56.1,29.82,SSW,202,0.0,0.0,46,0.00,CLR,,0.00,WeatherDisplay:10.37,2013-05-11 20:43:00,
2013-05-11 13:48:00,78.8,55.7,29.82,SW,225,0.0,0.0,45,0.00,CLR,,0.00,WeatherDisplay:10.37,2013-05-11 20:48:00,
2013-05-11 13:53:00,78.6,55.5,29.82,SW,225,0.0,0.0,45,0.00,CLR,,0.00,WeatherDisplay:10.37,2013-05-11 20:53:00,
2013-05-11 13:58:00,78.4,55.9,29.82,SW,225,3.4,3.4,46,0.00,CLR,,0.00,WeatherDisplay:10.37,2013-05-11 20:58:00,
2013-05-11 14:03:00,78.6,56.7,29.82,SW,225,0.0,0.0,47,0.00,CLR,,0.00,WeatherDisplay:10.37,2013-05-11 21:03:00,
2013-05-11 14:08:00,78.6,56.1,29.82,WSW,248,0.0,0.0,46,0.00,CLR,,0.00,WeatherDisplay:10.37,2013-05-11 21:08:00,
2013-05-11 14:13:00,78.6,56.7,29.81,SW,225,0.0,0.0,47,0.00,CLR,,0.00,WeatherDisplay:10.37,2013-05-11 21:13:00,
2013-05-11 14:18:00,78.4,55.9,29.81,SW,225,0.0,0.0,46,0.00,CLR,,0.00,WeatherDisplay:10.37,2013-05-11 21:18:00,
2013-05-11 14:23:00,78.6,57.3,29.81,SSW,202,0.0,0.0,48,0.00,CLR,,0.00,WeatherDisplay:10.37,2013-05-11 21:23:00,
2013-05-11 14:28:00,78.6,57.3,29.81,South,180,0.0,0.0,48,0.00,CLR,,0.00,WeatherDisplay:10.37,2013-05-11 21:28:00,
2013-05-11 14:33:00,78.6,57.3,29.81,WSW,248,0.0,0.0,48,0.00,CLR,,0.00,WeatherDisplay:10.37,2013-05-11 21:33:00,
2013-05-11 14:38:00,78.6,57.3,29.81,West,270,0.0,0.0,48,0.00,CLR,,0.00,WeatherDisplay:10.37,2013-05-11 21:38:00,
2013-05-11 14:43:00,78.4,55.9,29.81,WSW,248,3.5,3.5,46,0.00,CLR,,0.00,WeatherDisplay:10.37,2013-05-11 21:43:00,
2013-05-11 14:48:00,77.9,56.6,29.80,South,180,2.3,0.0,48,0.00,CLR,,0.00,WeatherDisplay:10.37,2013-05-11 21:48:00,
2013-05-11 14:53:00,77.7,55.9,29.80,SW,225,0.0,0.0,47,0.00,CLR,,0.00,WeatherDisplay:10.37,2013-05-11 21:53:00,
2013-05-11 14:58:00,77.9,56.6,29.80,West,270,1.6,1.6,48,0.00,CLR,,0.00,WeatherDisplay:10.37,2013-05-11 21:58:00,
2013-05-11 15:03:00,78.1,55.6,29.80,SW,225,0.0,0.0,46,0.00,CLR,,0.00,WeatherDisplay:10.37,2013-05-11 22:03:00,
2013-05-11 15:08:00,78.4,55.9,29.80,NW,315,0.0,0.0,46,0.00,CLR,,0.00,WeatherDisplay:10.37,2013-05-11 22:08:00,
2013-05-11 15:13:00,78.6,56.1,29.80,NW,315,0.0,0.0,46,0.00,CLR,,0.00,WeatherDisplay:10.37,2013-05-11 22:13:00,
2013-05-11 15:18:00,79.3,56.8,29.80,NW,315,0.0,0.0,46,0.00,CLR,,0.00,WeatherDisplay:10.37,2013-05-11 22:18:00,
2013-05-11 15:23:00,79.7,57.7,29.80,SSE,158,0.0,0.0,47,0.00,CLR,,0.00,WeatherDisplay:10.37,2013-05-11 22:23:00,
2013-05-11 15:28:00,79.9,57.3,29.79,WNW,292,2.3,2.3,46,0.00,CLR,,0.00,WeatherDisplay:10.37,2013-05-11 22:28:00,
2013-05-11 15:33:00,80.1,56.2,29.79,North,0,0.0,0.0,44,0.00,CLR,,0.00,WeatherDisplay:10.37,2013-05-11 22:33:00,
2013-05-11 15:38:00,79.9,56.0,29.79,SW,225,0.0,0.0,44,0.00,CLR,,0.00,WeatherDisplay:10.37,2013-05-11 22:38:00,
2013-05-11 15:43:00,80.4,57.1,29.79,SW,225,6.9,6.9,45,0.00,CLR,,0.00,WeatherDisplay:10.37,2013-05-11 22:43:00,
2013-05-11 15:48:00,80.4,57.1,29.79,SSW,202,0.0,0.0,45,0.00,CLR,,0.00,WeatherDisplay:10.37,2013-05-11 22:48:00,
2013-05-11 15:53:00,80.4,57.7,29.79,SSW,202,4.2,4.2,46,0.00,CLR,,0.00,WeatherDisplay:10.37,2013-05-11 22:53:00,
2013-05-11 15:58:00,80.4,57.1,29.78,West,270,3.5,3.5,45,0.00,CLR,,0.00,WeatherDisplay:10.37,2013-05-11 22:58:00,
2013-05-11 16:03:00,80.2,57.6,29.79,SSW,202,0.0,0.0,46,0.00,CLR,,0.00,WeatherDisplay:10.37,2013-05-11 23:03:00,
2013-05-11 16:08:00,80.2,57.0,29.78,SW,225,0.0,0.0,45,0.00,CLR,,0.00,WeatherDisplay:10.37,2013-05-11 23:08:00,
2013-05-11 16:13:00,80.2,57.6,29.78,ESE,112,0.0,0.0,46,0.00,CLR,,0.00,WeatherDisplay:10.37,2013-05-11 23:13:00,
2013-05-11 16:18:00,80.2,57.0,29.78,SE,135,6.9,0.0,45,0.00,CLR,,0.00,WeatherDisplay:10.37,2013-05-11 23:18:00,
2013-05-11 16:23:00,80.2,57.0,29.78,NE,45,0.0,0.0,45,0.00,CLR,,0.00,WeatherDisplay:10.37,2013-05-11 23:23:00,
2013-05-11 16:28:00,80.4,57.7,29.78,SSE,158,0.0,0.0,46,0.00,CLR,,0.00,WeatherDisplay:10.37,2013-05-11 23:28:00,
2013-05-11 16:33:00,80.6,56.0,29.77,West,270,0.0,0.0,43,0.00,CLR,,0.00,WeatherDisplay:10.37,2013-05-11 23:33:00,
2013-05-11 16:38:00,81.0,57.0,29.77,WSW,248,0.0,0.0,44,0.00,CLR,,0.00,WeatherDisplay:10.37,2013-05-11 23:38:00,
2013-05-11 16:43:00,81.3,57.3,29.77,West,270,3.5,3.5,44,0.00,CLR,,0.00,WeatherDisplay:10.37,2013-05-11 23:43:00,
2013-05-11 16:48:00,81.1,56.5,29.77,SE,135,0.0,0.0,43,0.00,CLR,,0.00,WeatherDisplay:10.37,2013-05-11 23:48:00,
2013-05-11 16:53:00,80.4,55.9,29.77,SW,225,0.0,0.0,43,0.00,CLR,,0.00,WeatherDisplay:10.37,2013-05-11 23:53:00,
2013-05-11 16:58:00,80.6,56.0,29.77,SSE,158,0.0,0.0,43,0.00,CLR,,0.00,WeatherDisplay:10.37,2013-05-11 23:58:00,
2013-05-11 17:03:00,81.1,56.5,29.76,WSW,248,0.0,0.0,43,0.00,CLR,,0.00,WeatherDisplay:10.37,2013-05-12 00:03:00,
2013-05-11 17:08:00,81.7,57.0,29.76,SSW,202,0.0,0.0,43,0.00,CLR,,0.00,WeatherDisplay:10.37,2013-05-12 00:08:00,
2013-05-11 17:13:00,82.0,56.7,29.76,ESE,112,0.0,0.0,42,0.00,CLR,,0.00,WeatherDisplay:10.37,2013-05-12 00:13:00,
2013-05-11 17:18:00,82.2,56.8,29.76,SE,135,2.3,2.3,42,0.00,CLR,,0.00,WeatherDisplay:10.37,2013-05-12 00:18:00,
2013-05-11 17:23:00,82.2,56.2,29.76,WSW,248,0.0,0.0,41,0.00,CLR,,0.00,WeatherDisplay:10.37,2013-05-12 00:23:00,
2013-05-11 17:28:00,82.2,55.5,29.76,WSW,248,0.0,0.0,40,0.00,CLR,,0.00,WeatherDisplay:10.37,2013-05-12 00:28:00,
2013-05-11 17:33:00,81.1,55.2,29.76,SW,225,1.2,0.0,41,0.00,CLR,,0.00,WeatherDisplay:10.37,2013-05-12 00:33:00,
2013-05-11 17:38:00,80.6,56.0,29.76,SW,225,0.0,0.0,43,0.00,CLR,,0.00,WeatherDisplay:10.37,2013-05-12 00:38:00,
2013-05-11 17:43:00,80.4,55.9,29.75,SSW,202,0.0,0.0,43,0.00,CLR,,0.00,WeatherDisplay:10.37,2013-05-12 00:43:00,
2013-05-11 17:48:00,81.1,56.5,29.75,SW,225,1.6,1.6,43,0.00,CLR,,0.00,WeatherDisplay:10.37,2013-05-12 00:48:00,
2013-05-11 17:53:00,82.2,56.2,29.75,SW,225,0.0,0.0,41,0.00,CLR,,0.00,WeatherDisplay:10.37,2013-05-12 00:53:00,
2013-05-11 17:58:00,82.9,56.8,29.75,SW,225,0.0,0.0,41,0.00,CLR,,0.00,WeatherDisplay:10.37,2013-05-12 00:58:00,
2013-05-11 18:03:00,83.3,56.5,29.75,SE,135,0.0,0.0,40,0.00,CLR,,0.00,WeatherDisplay:10.37,2013-05-12 01:03:00,
2013-05-11 18:08:00,83.8,56.2,29.74,SSE,158,1.1,0.0,39,0.00,CLR,,0.00,WeatherDisplay:10.37,2013-05-12 01:08:00,
2013-05-11 18:13:00,83.8,56.2,29.74,SSW,202,0.0,0.0,39,0.00,CLR,,0.00,WeatherDisplay:10.37,2013-05-12 01:13:00,
2013-05-11 18:18:00,83.7,55.4,29.74,West,270,0.0,0.0,38,0.00,CLR,,0.00,WeatherDisplay:10.37,2013-05-12 01:18:00,
2013-05-11 18:23:00,82.9,54.7,29.74,West,270,0.0,0.0,38,0.00,CLR,,0.00,WeatherDisplay:10.37,2013-05-12 01:23:00,
2013-05-11 18:28:00,82.6,55.1,29.74,SSE,158,0.0,0.0,39,0.00,CLR,,0.00,WeatherDisplay:10.37,2013-05-12 01:28:00,
2013-05-11 18:33:00,81.7,55.0,29.74,SSE,158,0.0,0.0,40,0.00,CLR,,0.00,WeatherDisplay:10.37,2013-05-12 01:33:00,
2013-05-11 18:38:00,81.0,54.4,29.73,South,180,0.0,0.0,40,0.00,CLR,,0.00,WeatherDisplay:10.37,2013-05-12 01:38:00,
2013-05-11 18:43:00,80.4,54.6,29.74,South,180,0.0,0.0,41,0.00,CLR,,0.00,WeatherDisplay:10.37,2013-05-12 01:43:00,
2013-05-11 18:48:00,80.1,54.9,29.74,South,180,0.0,0.0,42,0.00,CLR,,0.00,WeatherDisplay:10.37,2013-05-12 01:48:00,
2013-05-11 18:53:00,79.3,54.3,29.73,WSW,248,0.0,0.0,42,0.00,CLR,,0.00,WeatherDisplay:10.37,2013-05-12 01:53:00,
2013-05-11 18:58:00,79.0,54.6,29.73,WSW,248,0.0,0.0,43,0.00,CLR,,0.00,WeatherDisplay:10.37,2013-05-12 01:58:00,
2013-05-11 19:03:00,78.4,54.7,29.73,SW,225,0.0,0.0,44,0.00,CLR,,0.00,WeatherDisplay:10.37,2013-05-12 02:03:00,
2013-05-11 19:08:00,77.7,54.1,29.73,SW,225,0.0,0.0,44,0.00,CLR,,0.00,WeatherDisplay:10.37,2013-05-12 02:08:00,
2013-05-11 19:13:00,77.2,54.2,29.73,SW,225,0.0,0.0,45,0.00,CLR,,0.00,WeatherDisplay:10.37,2013-05-12 02:13:00,
2013-05-11 19:18:00,76.6,53.7,29.73,SSW,202,0.0,0.0,45,0.00,CLR,,0.00,WeatherDisplay:10.37,2013-05-12 02:18:00,
2013-05-11 19:23:00,75.9,53.6,29.73,SSW,202,0.0,0.0,46,0.00,CLR,,0.00,WeatherDisplay:10.37,2013-05-12 02:23:00,
2013-05-11 19:28:00,75.7,54.1,29.73,SSW,202,0.0,0.0,47,0.00,CLR,,0.00,WeatherDisplay:10.37,2013-05-12 02:28:00,
2013-05-11 19:33:00,75.4,53.7,29.73,SW,225,0.0,0.0,47,0.00,CLR,,0.00,WeatherDisplay:10.37,2013-05-12 02:33:00,
2013-05-11 19:38:00,75.0,54.0,29.73,SW,225,0.0,0.0,48,0.00,CLR,,0.00,WeatherDisplay:10.37,2013-05-12 02:38:00,
2013-05-11 19:43:00,74.8,54.9,29.73,SW,225,0.0,0.0,50,0.00,CLR,,0.00,WeatherDisplay:10.37,2013-05-12 02:43:00,
2013-05-11 19:48:00,74.3,54.5,29.73,WSW,248,0.0,0.0,50,0.00,CLR,,0.00,WeatherDisplay:10.37,2013-05-12 02:48:00,
2013-05-11 19:53:00,73.9,54.7,29.73,SW,225,0.0,0.0,51,0.00,CLR,,0.00,WeatherDisplay:10.37,2013-05-12 02:53:00,
2013-05-11 19:58:00,73.8,54.5,29.73,WSW,248,0.0,0.0,51,0.00,CLR,,0.00,WeatherDisplay:10.37,2013-05-12 02:58:00,
2013-05-11 20:03:00,73.8,54.0,29.73,WSW,248,0.0,0.0,50,0.00,CLR,,0.00,WeatherDisplay:10.37,2013-05-12 03:03:00,
2013-05-11 20:08:00,73.4,54.2,29.73,WSW,248,0.0,0.0,51,0.00,CLR,,0.00,WeatherDisplay:10.37,2013-05-12 03:08:00,
2013-05-11 20:13:00,73.2,54.5,29.73,WSW,248,0.0,0.0,52,0.00,CLR,,0.00,WeatherDisplay:10.37,2013-05-12 03:13:00,
2013-05-11 20:18:00,73.0,54.4,29.73,WSW,248,0.0,0.0,52,0.00,CLR,,0.00,WeatherDisplay:10.37,2013-05-12 03:18:00,
2013-05-11 20:23:00,72.5,54.4,29.73,WSW,248,0.0,0.0,53,0.00,CLR,,0.00,WeatherDisplay:10.37,2013-05-12 03:23:00,
2013-05-11 20:28:00,72.1,54.6,29.73,WSW,248,0.0,0.0,54,0.00,CLR,,0.00,WeatherDisplay:10.37,2013-05-12 03:28:00,
2013-05-11 20:33:00,71.6,54.1,29.73,WSW,248,0.0,0.0,54,0.00,CLR,,0.00,WeatherDisplay:10.37,2013-05-12 03:33:00,
2013-05-11 20:38:00,70.9,54.4,29.73,WSW,248,0.0,0.0,56,0.00,CLR,,0.00,WeatherDisplay:10.37,2013-05-12 03:38:00,
2013-05-11 20:43:00,72.7,56.1,29.74,WSW,248,0.0,0.0,56,0.00,CLR,,0.00,WeatherDisplay:10.37,2013-05-12 03:43:00,
2013-05-11 20:48:00,72.3,56.7,29.75,WSW,248,0.0,0.0,58,0.00,CLR,,0.00,WeatherDisplay:10.37,2013-05-12 03:48:00,
2013-05-11 20:53:00,71.8,56.7,29.74,WSW,248,0.0,0.0,59,0.00,CLR,,0.00,WeatherDisplay:10.37,2013-05-12 03:53:00,
2013-05-11 20:58:00,71.2,56.6,29.75,WSW,248,0.0,0.0,60,0.00,CLR,,0.00,WeatherDisplay:10.37,2013-05-12 03:58:00,
2013-05-11 21:01:00,71.1,56.5,29.75,SSE,158,0.0,0.0,60,0.00,CLR,,0.00,WeatherDisplay:10.37,2013-05-12 04:01:00,
2013-05-11 21:04:00,71.1,56.9,29.75,SSE,158,0.0,0.0,61,0.00,CLR,,0.00,WeatherDisplay:10.37,2013-05-12 04:04:00,
2013-05-11 21:06:00,70.9,56.8,29.75,SSE,158,0.0,0.0,61,0.00,CLR,,0.00,WeatherDisplay:10.37,2013-05-12 04:06:00,
2013-05-11 21:10:00,70.7,56.6,29.76,SSE,158,0.0,0.0,61,0.00,CLR,,0.00,WeatherDisplay:10.37,2013-05-12 04:10:00,
2013-05-11 21:11:00,70.7,56.6,29.76,SSE,158,0.0,0.0,61,0.00,CLR,,0.00,WeatherDisplay:10.37,2013-05-12 04:11:00,
2013-05-11 21:16:00,70.3,57.1,29.76,SSE,158,0.0,0.0,63,0.00,CLR,,0.00,WeatherDisplay:10.37,2013-05-12 04:16:00,
2013-05-11 21:21:00,69.8,57.1,29.76,SSE,158,0.0,0.0,64,0.00,CLR,,0.00,WeatherDisplay:10.37,2013-05-12 04:21:00,
2013-05-11 21:26:00,69.6,57.3,29.77,SSE,158,0.0,0.0,65,0.00,CLR,,0.00,WeatherDisplay:10.37,2013-05-12 04:26:00,
2013-05-11 21:31:00,69.4,57.2,29.77,SSE,158,0.0,0.0,65,0.00,CLR,,0.00,WeatherDisplay:10.37,2013-05-12 04:31:00,
2013-05-11 21:36:00,68.9,56.6,29.77,SSE,158,0.0,0.0,65,0.00,CLR,,0.00,WeatherDisplay:10.37,2013-05-12 04:36:00,
2013-05-11 21:41:00,68.7,56.9,29.77,SSE,158,0.0,0.0,66,0.00,CLR,,0.00,WeatherDisplay:10.37,2013-05-12 04:41:00,
2013-05-11 21:46:00,68.5,56.7,29.77,SSE,158,0.0,0.0,66,0.00,CLR,,0.00,WeatherDisplay:10.37,2013-05-12 04:46:00,
2013-05-11 21:51:00,68.4,57.0,29.77,SSE,158,0.0,0.0,67,0.00,CLR,,0.00,WeatherDisplay:10.37,2013-05-12 04:51:00,
2013-05-11 21:56:00,68.2,57.2,29.78,SSE,158,0.0,0.0,68,0.00,CLR,,0.00,WeatherDisplay:10.37,2013-05-12 04:56:00,
2013-05-11 22:01:00,67.8,56.9,29.78,SSE,158,0.0,0.0,68,0.00,CLR,,0.00,WeatherDisplay:10.37,2013-05-12 05:01:00,
2013-05-11 22:06:00,67.8,57.3,29.78,SSE,158,0.0,0.0,69,0.00,CLR,,0.00,WeatherDisplay:10.37,2013-05-12 05:06:00,
2013-05-11 22:11:00,67.6,57.1,29.78,SSE,158,0.0,0.0,69,0.00,CLR,,0.00,WeatherDisplay:10.37,2013-05-12 05:11:00,
2013-05-11 22:16:00,67.6,57.5,29.77,SSE,158,0.0,0.0,70,0.00,CLR,,0.00,WeatherDisplay:10.37,2013-05-12 05:16:00,
2013-05-11 22:21:00,67.3,57.2,29.77,SSE,158,0.0,0.0,70,0.00,CLR,,0.00,WeatherDisplay:10.37,2013-05-12 05:21:00,
2013-05-11 22:26:00,67.3,57.2,29.77,SSE,158,0.0,0.0,70,0.00,CLR,,0.00,WeatherDisplay:10.37,2013-05-12 05:26:00,
2013-05-11 22:31:00,67.3,57.9,29.77,East,90,0.0,0.0,72,0.00,CLR,,0.00,WeatherDisplay:10.37,2013-05-12 05:31:00,
2013-05-11 22:36:00,67.1,57.8,29.77,ESE,112,0.0,0.0,72,0.00,CLR,,0.00,WeatherDisplay:10.37,2013-05-12 05:36:00,
2013-05-11 22:41:00,67.1,57.8,29.77,ESE,112,0.0,0.0,72,0.00,CLR,,0.00,WeatherDisplay:10.37,2013-05-12 05:41:00,
2013-05-11 22:46:00,67.1,57.8,29.78,SSE,158,0.0,0.0,72,0.00,CLR,,0.00,WeatherDisplay:10.37,2013-05-12 05:46:00,
2013-05-11 22:51:00,67.1,58.2,29.78,SSE,158,0.0,0.0,73,0.00,CLR,,0.00,WeatherDisplay:10.37,2013-05-12 05:51:00,
2013-05-11 22:56:00,66.9,58.0,29.77,SSE,158,0.0,0.0,73,0.00,CLR,,0.00,WeatherDisplay:10.37,2013-05-12 05:56:00,
2013-05-11 23:01:00,66.7,58.2,29.77,SSE,158,0.0,0.0,74,0.00,CLR,,0.00,WeatherDisplay:10.37,2013-05-12 06:01:00,
2013-05-11 23:06:00,66.6,58.0,29.76,SSE,158,0.0,0.0,74,0.00,CLR,,0.00,WeatherDisplay:10.37,2013-05-12 06:06:00,
2013-05-11 23:11:00,66.2,57.7,29.77,SSE,158,0.0,0.0,74,0.00,CLR,,0.00,WeatherDisplay:10.37,2013-05-12 06:11:00,
2013-05-11 23:16:00,65.8,57.3,29.77,SSE,158,0.0,0.0,74,0.00,CLR,,0.00,WeatherDisplay:10.37,2013-05-12 06:16:00,
2013-05-11 23:21:00,65.7,65.4,29.76,SE,135,0.0,0.0,99,0.00,CLR,,0.00,WeatherDisplay:10.37,2013-05-12 06:21:00,
2013-05-11 23:26:00,65.5,65.2,29.76,ESE,112,0.0,0.0,99,0.00,CLR,,0.00,WeatherDisplay:10.37,2013-05-12 06:26:00,
2013-05-11 23:31:00,65.3,65.0,29.77,ESE,112,0.0,0.0,99,0.00,CLR,,0.00,WeatherDisplay:10.37,2013-05-12 06:31:00,
2013-05-11 23:36:00,65.1,64.8,29.76,ESE,112,0.0,0.0,99,0.00,CLR,,0.00,WeatherDisplay:10.37,2013-05-12 06:36:00,
2013-05-11 23:41:00,64.9,64.7,29.77,ESE,112,0.0,0.0,99,0.00,CLR,,0.00,WeatherDisplay:10.37,2013-05-12 06:41:00,
2013-05-11 23:46:00,64.8,64.5,29.77,ESE,112,0.0,0.0,99,0.00,CLR,,0.00,WeatherDisplay:10.37,2013-05-12 06:46:00,
2013-05-11 23:51:00,64.6,64.3,29.77,ESE,112,0.0,0.0,99,0.00,CLR,,0.00,WeatherDisplay:10.37,2013-05-12 06:51:00,
2013-05-11 23:56:00,64.6,64.3,29.77,ESE,112,0.0,0.0,99,0.00,CLR,,0.00,WeatherDisplay:10.37,2013-05-12 06:56:00,